createdAt,value
2018-07-31T00:01:42.177Z,86.20
2018-07-31T00:04:11.775Z,86.40
2018-07-31T00:06:43.303Z,86.80
2018-07-31T00:09:12.900Z,87.20
2018-07-31T00:11:42.488Z,87.10
2018-07-31T00:14:12.072Z,86.40
2018-07-31T00:16:42.114Z,85.90
2018-07-31T00:19:11.709Z,86.00
2018-07-31T00:21:42.295Z,86.10
2018-07-31T00:24:11.828Z,87.10
2018-07-31T00:26:41.373Z,87.20
2018-07-31T00:29:10.940Z,87.20
2018-07-31T00:31:41.441Z,87.00
2018-07-31T00:34:10.985Z,87.00
2018-07-31T00:36:41.913Z,87.10
2018-07-31T00:41:42.315Z,87.50
2018-07-31T00:44:11.914Z,86.80
2018-07-31T00:46:42.147Z,86.30
2018-07-31T00:49:11.755Z,85.50
2018-07-31T00:51:43.332Z,86.10
2018-07-31T00:54:12.975Z,86.70
2018-07-31T00:56:42.521Z,87.10
2018-07-31T00:59:12.142Z,88.00
2018-07-31T01:01:42.619Z,88.00
2018-07-31T01:04:12.334Z,88.30
2018-07-31T01:06:44.882Z,87.60
2018-07-31T01:09:14.987Z,88.10
2018-07-31T01:11:44.593Z,88.90
2018-07-31T01:16:43.866Z,89.10
2018-07-31T01:19:13.429Z,89.30
2018-07-31T01:21:43.654Z,89.40
2018-07-31T01:24:13.209Z,89.90
2018-07-31T01:29:12.024Z,90.20
2018-07-31T01:31:42.029Z,89.90
2018-07-31T01:34:11.980Z,89.30
2018-07-31T01:39:13.049Z,89.30
2018-07-31T01:44:13.017Z,89.10
2018-07-31T01:46:43.021Z,89.70
2018-07-31T01:49:13.333Z,89.30
2018-07-31T01:51:43.921Z,89.20
2018-07-31T01:54:13.565Z,89.60
2018-07-31T01:56:43.131Z,89.90
2018-07-31T01:59:13.280Z,89.60
2018-07-31T02:01:43.741Z,89.20
2018-07-31T02:04:13.987Z,89.40
2018-07-31T02:06:43.809Z,90.00
2018-07-31T02:09:14.383Z,89.90
2018-07-31T02:11:43.690Z,90.00
2018-07-31T02:14:13.608Z,89.50
2018-07-31T02:16:44.521Z,89.70
2018-07-31T02:19:14.847Z,89.60
2018-07-31T02:21:44.579Z,89.50
2018-07-31T02:24:14.187Z,89.10
2018-07-31T02:26:43.796Z,89.10
2018-07-31T02:29:13.410Z,89.60
2018-07-31T02:31:43.718Z,89.90
2018-07-31T02:34:13.434Z,90.00
2018-07-31T02:36:43.673Z,90.10
2018-07-31T02:39:13.292Z,90.10
2018-07-31T02:41:42.908Z,90.10
2018-07-31T02:44:12.606Z,90.10
2018-07-31T02:46:43.101Z,90.40
2018-07-31T02:49:12.687Z,90.40
2018-07-31T02:51:43.198Z,90.50
2018-07-31T02:56:42.123Z,90.40
2018-07-31T02:59:12.793Z,90.50
2018-07-31T03:01:42.810Z,90.40
2018-07-31T03:04:12.855Z,90.60
2018-07-31T03:06:43.077Z,90.60
2018-07-31T03:09:13.187Z,90.90
2018-07-31T03:11:42.705Z,91.30
2018-07-31T03:14:13.031Z,91.40
2018-07-31T03:16:43.522Z,91.30
2018-07-31T03:19:13.570Z,91.10
2018-07-31T03:21:43.967Z,91.50
2018-07-31T03:24:13.978Z,91.10
2018-07-31T03:26:43.576Z,90.90
2018-07-31T03:29:13.712Z,91.30
2018-07-31T03:31:44.299Z,91.40
2018-07-31T03:34:14.562Z,91.40
2018-07-31T03:36:44.675Z,91.30
2018-07-31T03:39:14.950Z,91.50
2018-07-31T03:41:44.560Z,91.40
2018-07-31T03:44:14.869Z,91.50
2018-07-31T03:46:45.195Z,91.50
2018-07-31T03:49:14.971Z,91.90
2018-07-31T03:51:45.081Z,91.50
2018-07-31T03:56:44.303Z,91.50
2018-07-31T03:59:14.548Z,91.50
2018-07-31T04:01:44.564Z,91.30
2018-07-31T04:04:14.653Z,91.30
2018-07-31T04:06:44.499Z,91.20
2018-07-31T04:09:14.860Z,91.10
2018-07-31T04:11:44.479Z,91.00
2018-07-31T04:14:14.590Z,91.10
2018-07-31T04:16:44.847Z,90.90
2018-07-31T04:19:14.732Z,90.90
2018-07-31T04:21:44.482Z,90.70
2018-07-31T04:24:14.447Z,90.60
2018-07-31T04:26:44.144Z,90.50
2018-07-31T04:29:14.554Z,90.20
2018-07-31T04:31:44.973Z,90.00
2018-07-31T04:34:15.548Z,89.60
2018-07-31T04:36:45.187Z,88.40
2018-07-31T04:39:15.635Z,88.30
2018-07-31T04:41:45.294Z,88.50
2018-07-31T04:44:16.230Z,88.00
2018-07-31T04:46:45.896Z,87.40
2018-07-31T04:49:16.120Z,87.50
2018-07-31T04:51:45.774Z,88.00
2018-07-31T04:54:15.839Z,86.70
2018-07-31T04:56:45.544Z,84.20
2018-07-31T04:59:15.876Z,82.30
2018-07-31T05:04:15.876Z,78.70
2018-07-31T05:06:45.506Z,77.30
2018-07-31T05:09:15.643Z,76.90
2018-07-31T05:11:45.258Z,74.40
2018-07-31T05:14:14.985Z,74.90
2018-07-31T05:16:45.175Z,73.60
2018-07-31T05:19:14.877Z,73.10
2018-07-31T05:21:44.673Z,72.40
2018-07-31T05:24:14.299Z,71.80
2018-07-31T05:26:43.963Z,71.10
2018-07-31T05:29:13.556Z,70.40
2018-07-31T05:34:13.293Z,67.60
2018-07-31T05:36:43.538Z,67.50
2018-07-31T05:39:13.480Z,67.00
2018-07-31T05:41:43.111Z,65.30
2018-07-31T05:44:12.721Z,65.00
2018-07-31T05:46:43.236Z,64.70
2018-07-31T05:49:12.838Z,65.40
2018-07-31T05:51:42.854Z,65.40
2018-07-31T05:54:12.484Z,64.70
2018-07-31T05:56:42.083Z,65.50
2018-07-31T05:59:11.671Z,64.40
2018-07-31T06:01:42.692Z,63.50
2018-07-31T06:04:12.320Z,64.00
2018-07-31T06:06:43.601Z,62.50
2018-07-31T06:09:13.197Z,62.20
2018-07-31T06:11:42.761Z,62.30
2018-07-31T06:14:12.352Z,61.20
2018-07-31T06:16:42.198Z,61.30
2018-07-31T06:19:11.815Z,59.70
2018-07-31T06:21:43.120Z,58.80
2018-07-31T06:24:12.722Z,58.40
2018-07-31T06:26:42.508Z,58.10
2018-07-31T06:29:12.184Z,58.60
2018-07-31T06:31:42.952Z,58.20
2018-07-31T06:34:12.575Z,58.90
2018-07-31T06:36:42.996Z,57.30
2018-07-31T06:39:12.639Z,57.60
2018-07-31T06:41:42.213Z,57.90
2018-07-31T06:44:11.874Z,58.30
2018-07-31T06:46:43.217Z,57.30
2018-07-31T06:49:12.824Z,57.60
2018-07-31T06:51:43.647Z,57.20
2018-07-31T06:54:13.283Z,56.50
2018-07-31T06:56:42.883Z,57.60
2018-07-31T06:59:12.470Z,57.20
2018-07-31T07:01:43.020Z,57.10
2018-07-31T07:04:12.610Z,56.30
2018-07-31T07:06:42.711Z,56.80
2018-07-31T07:09:12.970Z,55.80
2018-07-31T07:11:42.535Z,56.40
2018-07-31T07:14:12.158Z,57.10
2018-07-31T07:16:42.855Z,57.30
2018-07-31T07:19:12.457Z,56.20
2018-07-31T07:21:43.094Z,56.10
2018-07-31T07:26:42.003Z,57.10
2018-07-31T07:29:11.733Z,57.40
2018-07-31T07:31:43.074Z,57.60
2018-07-31T07:34:12.713Z,57.60
2018-07-31T07:36:43.004Z,58.00
2018-07-31T07:39:13.292Z,58.30
2018-07-31T07:41:42.966Z,57.80
2018-07-31T07:44:12.627Z,57.00
2018-07-31T07:46:43.219Z,56.80
2018-07-31T07:51:43.006Z,56.40
2018-07-31T07:54:12.740Z,55.70
2018-07-31T07:56:42.295Z,56.60
2018-07-31T07:59:11.929Z,57.20
2018-07-31T08:04:12.113Z,56.50
2018-07-31T08:06:42.801Z,56.50
2018-07-31T08:09:12.413Z,57.20
2018-07-31T08:11:42.120Z,56.60
2018-07-31T08:14:11.786Z,58.40
2018-07-31T08:16:42.313Z,56.80
2018-07-31T08:19:11.946Z,56.90
2018-07-31T08:24:11.562Z,55.70
2018-07-31T08:26:41.139Z,54.10
2018-07-31T08:29:10.770Z,53.60
2018-07-31T08:31:41.270Z,54.40
2018-07-31T08:34:10.893Z,52.10
2018-07-31T08:36:42.009Z,49.90
2018-07-31T08:39:11.788Z,50.20
2018-07-31T08:41:41.466Z,50.00
2018-07-31T08:46:41.444Z,50.80
2018-07-31T08:49:11.012Z,50.80
2018-07-31T08:51:41.738Z,51.00
2018-07-31T08:54:11.307Z,49.00
2018-07-31T08:56:40.906Z,50.20
2018-07-31T08:59:10.494Z,50.60
2018-07-31T09:01:41.195Z,50.20
2018-07-31T09:04:10.766Z,52.00
2018-07-31T09:06:41.777Z,51.30
2018-07-31T09:11:41.724Z,50.10
2018-07-31T09:14:11.291Z,48.60
2018-07-31T09:16:41.950Z,50.40
2018-07-31T09:19:11.564Z,47.70
2018-07-31T09:21:43.506Z,47.50
2018-07-31T09:24:13.701Z,47.40
2018-07-31T09:26:43.920Z,48.80
2018-07-31T09:29:13.627Z,49.80
2018-07-31T09:31:44.200Z,47.80
2018-07-31T09:34:13.859Z,47.30
2018-07-31T09:36:44.485Z,47.10
2018-07-31T09:39:14.134Z,45.10
2018-07-31T09:41:44.360Z,45.10
2018-07-31T09:44:13.985Z,44.20
2018-07-31T09:46:44.294Z,44.90
2018-07-31T09:49:13.931Z,44.90
2018-07-31T09:51:44.121Z,44.30
2018-07-31T09:54:13.949Z,44.30
2018-07-31T09:56:43.617Z,44.00
2018-07-31T09:59:13.280Z,43.80
2018-07-31T10:01:45.670Z,43.90
2018-07-31T10:04:15.292Z,45.00
2018-07-31T10:06:45.532Z,44.80
2018-07-31T10:09:15.226Z,44.50
2018-07-31T10:11:44.849Z,43.50
2018-07-31T10:14:14.458Z,44.70
2018-07-31T10:16:45.281Z,45.10
2018-07-31T10:19:14.909Z,44.00
2018-07-31T10:21:44.970Z,43.00
2018-07-31T10:24:14.621Z,42.20
2018-07-31T10:26:44.262Z,43.50
2018-07-31T10:29:13.882Z,44.80
2018-07-31T10:31:45.543Z,45.70
2018-07-31T10:34:17.836Z,44.50
2018-07-31T10:36:47.948Z,44.40
2018-07-31T10:39:18.189Z,43.00
2018-07-31T10:41:48.607Z,41.60
2018-07-31T10:44:18.155Z,44.50
2018-07-31T10:46:47.976Z,43.20
2018-07-31T10:49:17.542Z,42.90
2018-07-31T10:51:47.183Z,43.30
2018-07-31T10:54:16.792Z,43.00
2018-07-31T10:56:46.521Z,42.30
2018-07-31T10:59:16.150Z,42.80
2018-07-31T11:01:46.121Z,43.60
2018-07-31T11:04:15.736Z,42.50
2018-07-31T11:06:45.430Z,42.50
2018-07-31T11:09:14.983Z,40.50
2018-07-31T11:11:44.621Z,41.20
2018-07-31T11:14:14.212Z,40.60
2018-07-31T11:16:44.604Z,40.40
2018-07-31T11:19:14.221Z,40.40
2018-07-31T11:21:44.429Z,41.40
2018-07-31T11:24:14.080Z,40.90
2018-07-31T11:26:44.387Z,41.40
2018-07-31T11:29:15.024Z,41.30
2018-07-31T11:31:44.987Z,39.60
2018-07-31T11:34:14.649Z,39.00
2018-07-31T11:36:44.753Z,39.10
2018-07-31T11:39:14.358Z,38.20
2018-07-31T11:41:44.010Z,37.60
2018-07-31T11:44:13.568Z,38.50
2018-07-31T11:46:43.814Z,38.30
2018-07-31T11:49:13.471Z,36.80
2018-07-31T11:51:43.612Z,36.80
2018-07-31T11:54:13.651Z,37.10
2018-07-31T11:56:43.288Z,36.70
2018-07-31T11:59:12.909Z,36.00
2018-07-31T12:01:43.898Z,35.80
2018-07-31T12:04:13.488Z,35.60
2018-07-31T12:06:44.743Z,34.50
2018-07-31T12:09:14.619Z,35.40
2018-07-31T12:11:44.857Z,36.10
2018-07-31T12:14:14.838Z,34.70
2018-07-31T12:16:45.444Z,36.00
2018-07-31T12:19:15.115Z,35.60
2018-07-31T12:26:44.382Z,36.30
2018-07-31T12:29:14.151Z,36.10
2018-07-31T12:31:45.381Z,35.60
2018-07-31T12:34:15.048Z,34.20
2018-07-31T12:36:46.389Z,35.20
2018-07-31T12:39:16.030Z,35.00
2018-07-31T12:41:45.631Z,34.70
2018-07-31T12:44:15.245Z,33.80
2018-07-31T12:46:46.312Z,33.70
2018-07-31T12:49:15.978Z,32.70
2018-07-31T12:51:46.409Z,32.00
2018-07-31T12:54:16.083Z,33.00
2018-07-31T12:56:45.837Z,32.40
2018-07-31T12:59:15.456Z,31.40
2018-07-31T13:01:45.985Z,31.50
2018-07-31T13:04:15.631Z,28.70
2018-07-31T13:09:15.369Z,30.50
2018-07-31T13:11:45.355Z,30.40
2018-07-31T13:14:14.949Z,29.80
2018-07-31T13:16:46.226Z,27.50
2018-07-31T13:19:15.855Z,27.90
2018-07-31T13:21:45.710Z,27.60
2018-07-31T13:24:15.371Z,28.40
2018-07-31T13:26:45.697Z,28.20
2018-07-31T13:29:15.275Z,28.10
2018-07-31T13:31:46.931Z,28.10
2018-07-31T13:34:16.562Z,27.50
2018-07-31T13:36:47.022Z,27.10
2018-07-31T13:39:16.683Z,28.50
2018-07-31T13:41:46.639Z,27.80
2018-07-31T13:44:16.247Z,26.90
2018-07-31T13:46:47.612Z,27.60
2018-07-31T13:49:17.215Z,27.00
2018-07-31T13:51:47.479Z,26.80
2018-07-31T13:54:17.122Z,27.40
2018-07-31T13:56:47.455Z,27.40
2018-07-31T13:59:17.112Z,26.30
2018-07-31T14:01:49.462Z,26.50
2018-07-31T14:04:19.124Z,27.20
2018-07-31T14:06:48.833Z,27.60
2018-07-31T14:09:18.484Z,27.20
2018-07-31T14:11:48.389Z,27.40
2018-07-31T14:14:18.019Z,27.20
2018-07-31T14:16:49.294Z,28.10
2018-07-31T14:19:18.969Z,27.80
2018-07-31T14:21:48.875Z,27.90
2018-07-31T14:24:18.590Z,28.40
2018-07-31T14:26:48.773Z,28.40
2018-07-31T14:31:49.346Z,27.40
2018-07-31T14:34:19.100Z,27.90
2018-07-31T14:36:49.377Z,27.90
2018-07-31T14:39:19.014Z,27.70
2018-07-31T14:41:49.395Z,27.90
2018-07-31T14:44:19.480Z,27.50
2018-07-31T14:49:19.372Z,27.50
2018-07-31T14:54:18.950Z,27.60
2018-07-31T14:56:49.304Z,28.20
2018-07-31T14:59:19.112Z,27.10
2018-07-31T15:01:50.137Z,26.70
2018-07-31T15:04:19.832Z,26.80
2018-07-31T15:06:50.428Z,26.80
2018-07-31T15:09:20.040Z,27.10
2018-07-31T15:11:50.280Z,26.60
2018-07-31T15:14:19.964Z,26.70
2018-07-31T15:16:50.525Z,27.40
2018-07-31T15:19:20.168Z,27.80
2018-07-31T15:21:50.383Z,27.80
2018-07-31T15:24:19.969Z,27.40
2018-07-31T15:26:50.330Z,27.30
2018-07-31T15:29:19.998Z,27.10
2018-07-31T15:31:50.353Z,27.20
2018-07-31T15:34:19.971Z,27.40
2018-07-31T15:36:50.500Z,27.00
2018-07-31T15:39:20.166Z,27.00
2018-07-31T15:41:50.572Z,27.20
2018-07-31T15:44:20.298Z,26.70
2018-07-31T15:46:50.480Z,27.10
2018-07-31T15:49:20.170Z,27.70
2018-07-31T15:51:50.166Z,27.20
2018-07-31T15:54:19.862Z,27.20
2018-07-31T15:56:50.459Z,26.80
2018-07-31T15:59:20.157Z,27.70
2018-07-31T16:01:50.734Z,28.60
2018-07-31T16:04:20.324Z,29.00
2018-07-31T16:06:51.190Z,28.90
2018-07-31T16:09:20.765Z,28.80
2018-07-31T16:11:51.104Z,28.50
2018-07-31T16:14:20.683Z,29.50
2018-07-31T16:16:50.664Z,29.30
2018-07-31T16:19:20.346Z,29.20
2018-07-31T16:21:49.932Z,29.20
2018-07-31T16:24:19.634Z,30.40
2018-07-31T16:26:49.243Z,30.60
2018-07-31T16:29:18.906Z,29.80
2018-07-31T16:31:48.701Z,30.50
2018-07-31T16:34:18.400Z,30.00
2018-07-31T16:36:48.003Z,30.60
2018-07-31T16:39:17.585Z,30.30
2018-07-31T16:41:47.229Z,30.90
2018-07-31T16:44:16.827Z,31.70
2018-07-31T16:51:45.361Z,32.00
2018-07-31T16:54:14.919Z,32.80
2018-07-31T16:56:44.546Z,32.50
2018-07-31T16:59:14.260Z,30.80
2018-07-31T17:01:45.155Z,30.50
2018-07-31T17:04:15.989Z,31.40
2018-07-31T17:06:45.718Z,31.60
2018-07-31T17:09:15.445Z,32.10
2018-07-31T17:11:45.056Z,32.90
2018-07-31T17:14:14.663Z,33.00
2018-07-31T17:16:45.346Z,32.50
2018-07-31T17:19:14.930Z,32.60
2018-07-31T17:24:13.824Z,32.40
2018-07-31T17:26:45.005Z,32.40
2018-07-31T17:29:14.606Z,33.20
2018-07-31T17:31:45.646Z,33.70
2018-07-31T17:36:44.853Z,33.60
2018-07-31T17:39:14.549Z,33.40
2018-07-31T17:41:44.272Z,33.60
2018-07-31T17:44:13.957Z,33.90
2018-07-31T17:46:52.389Z,35.60
2018-07-31T17:49:22.425Z,36.10
2018-07-31T17:51:52.251Z,37.70
2018-07-31T17:54:21.968Z,37.40
2018-07-31T17:56:51.707Z,39.20
2018-07-31T17:59:21.722Z,38.60
2018-07-31T18:01:51.395Z,40.00
2018-07-31T18:04:20.995Z,40.60
2018-07-31T18:06:50.565Z,41.20
2018-07-31T18:09:20.196Z,41.10
2018-07-31T18:11:49.841Z,41.10
2018-07-31T18:14:19.424Z,42.40
2018-07-31T18:16:49.122Z,44.50
2018-07-31T18:19:18.675Z,46.00
2018-07-31T18:24:17.586Z,47.40
2018-07-31T18:26:47.152Z,47.10
2018-07-31T18:29:16.934Z,44.90
2018-07-31T18:31:47.190Z,44.70
2018-07-31T18:34:16.804Z,47.70
2018-07-31T18:36:46.498Z,49.20
2018-07-31T18:39:16.227Z,50.00
2018-07-31T18:41:45.828Z,51.20
2018-07-31T18:44:15.427Z,52.60
2018-07-31T18:46:45.847Z,53.60
2018-07-31T18:49:15.389Z,54.80
2018-07-31T18:51:45.087Z,54.30
2018-07-31T18:54:14.848Z,54.80
2018-07-31T18:56:44.429Z,56.10
2018-07-31T19:01:44.666Z,58.60
2018-07-31T19:04:14.291Z,59.50
2018-07-31T19:06:44.127Z,59.80
2018-07-31T19:09:13.718Z,60.70
2018-07-31T19:11:43.900Z,59.40
2018-07-31T19:14:13.515Z,61.60
2018-07-31T19:19:13.518Z,64.70
2018-07-31T19:21:44.137Z,65.50
2018-07-31T19:24:13.993Z,65.90
2018-07-31T19:26:43.785Z,65.80
2018-07-31T19:29:13.471Z,67.30
2018-07-31T19:31:43.919Z,67.60
2018-07-31T19:34:13.637Z,68.10
2018-07-31T19:36:44.286Z,66.80
2018-07-31T19:39:13.965Z,69.10
2018-07-31T19:41:43.642Z,69.60
2018-07-31T19:44:13.432Z,70.50
2018-07-31T19:46:43.680Z,69.30
2018-07-31T19:49:13.809Z,70.20
2018-07-31T19:51:44.217Z,69.80
2018-07-31T19:54:14.682Z,70.30
2018-07-31T19:56:44.725Z,71.20
2018-07-31T20:01:44.797Z,71.10
2018-07-31T20:04:15.414Z,69.70
2018-07-31T20:06:45.118Z,66.40
2018-07-31T20:09:19.987Z,64.90
2018-07-31T20:11:52.278Z,63.10
2018-07-31T20:16:51.356Z,60.70
2018-07-31T20:19:21.079Z,60.70
2018-07-31T20:21:51.072Z,60.10
2018-07-31T20:24:20.675Z,59.90
2018-07-31T20:26:50.302Z,59.60
2018-07-31T20:29:19.972Z,59.10
2018-07-31T20:31:49.568Z,58.80
2018-07-31T20:34:19.160Z,58.60
2018-07-31T20:36:48.978Z,58.30
2018-07-31T20:39:18.599Z,58.30
2018-07-31T20:41:48.318Z,58.00
2018-07-31T20:44:17.902Z,58.40
2018-07-31T20:46:47.489Z,57.80
2018-07-31T20:49:17.190Z,57.60
2018-07-31T20:51:46.877Z,56.90
2018-07-31T20:54:16.510Z,57.00
2018-07-31T20:56:46.188Z,57.00
2018-07-31T21:04:14.864Z,56.00
2018-07-31T21:06:44.949Z,55.80
2018-07-31T21:09:20.486Z,56.10
2018-07-31T21:11:51.564Z,56.50
2018-07-31T21:14:21.358Z,56.90
2018-07-31T21:16:50.999Z,57.40
2018-07-31T21:19:20.823Z,57.80
2018-07-31T21:21:50.416Z,58.00
2018-07-31T21:24:20.040Z,58.00
2018-07-31T21:26:49.660Z,58.40
2018-07-31T21:29:19.259Z,58.10
2018-07-31T21:31:48.921Z,58.10
2018-07-31T21:34:18.509Z,58.10
2018-07-31T21:36:48.186Z,58.30
2018-07-31T21:39:17.772Z,58.60
2018-07-31T21:41:47.335Z,58.70
2018-07-31T21:44:17.597Z,59.40
2018-07-31T21:46:47.406Z,59.20
2018-07-31T21:49:17.203Z,59.50
2018-07-31T21:51:46.806Z,59.10
2018-07-31T21:54:16.878Z,59.30
2018-07-31T21:56:46.468Z,59.50
2018-07-31T21:59:16.898Z,59.70
2018-07-31T22:01:47.044Z,59.60
2018-07-31T22:04:17.403Z,59.70
2018-07-31T22:06:47.001Z,59.80
2018-07-31T22:09:17.245Z,60.20
2018-07-31T22:11:46.842Z,60.10
2018-07-31T22:14:16.849Z,60.70
2018-07-31T22:16:46.738Z,60.70
2018-07-31T22:19:16.316Z,61.00
2018-07-31T22:21:45.982Z,61.50
2018-07-31T22:24:16.247Z,61.80
2018-07-31T22:26:45.833Z,61.90
2018-07-31T22:29:15.933Z,62.60
2018-07-31T22:31:46.152Z,62.50
2018-07-31T22:34:16.184Z,62.90
2018-07-31T22:36:45.874Z,63.10
2018-07-31T22:39:16.052Z,63.40
2018-07-31T22:41:45.601Z,63.70
2018-07-31T22:44:15.188Z,64.10
2018-07-31T22:46:45.595Z,63.60
2018-07-31T22:49:15.136Z,63.80
2018-07-31T22:51:45.147Z,64.10
2018-07-31T22:54:14.742Z,64.50
2018-07-31T22:56:44.309Z,64.30
2018-07-31T22:59:13.875Z,65.20
2018-07-31T23:01:43.986Z,64.90
2018-07-31T23:04:13.630Z,65.70
2018-07-31T23:06:43.730Z,66.10
2018-07-31T23:09:13.390Z,66.80
2018-07-31T23:11:43.008Z,68.00
2018-07-31T23:14:12.656Z,68.00
2018-07-31T23:16:43.237Z,67.30
2018-07-31T23:19:12.829Z,68.00
2018-07-31T23:21:43.436Z,67.80
2018-07-31T23:24:13.019Z,69.40
2018-07-31T23:26:42.637Z,70.10
2018-07-31T23:29:12.407Z,70.10
2018-07-31T23:31:43.008Z,70.70
2018-07-31T23:34:12.615Z,70.70
2018-07-31T23:36:43.338Z,71.70
2018-07-31T23:39:12.943Z,73.10
2018-07-31T23:41:42.568Z,74.90
2018-07-31T23:44:12.150Z,75.60
2018-07-31T23:46:42.629Z,76.20
2018-07-31T23:49:12.199Z,77.40
2018-07-31T23:51:42.674Z,77.10
2018-07-31T23:54:12.239Z,77.20
2018-07-31T23:56:41.818Z,77.20
2018-07-31T23:59:11.391Z,77.50
